Time;durP1;ratioP1;P1;durP2;ratioP2;P2;SDS_P1;SDS_P2;PMS_P1;PMS_P2;Temp;Humidity;BMP_temperature;BMP_pressure;BME280_temperature;BME280_humidity;BME280_pressure;Samples;Min_cycle;Max_cycle;Signal;HPM_P1;HPM_P2
2023/11/23 00:02:25;;;;;;;14.50;7.50;;;9.10;89.70;;;;;;5054276;28;20040;-62
2023/11/23 00:04:51;;;;;;;14.52;8.70;;;9.10;89.70;;;;;;5055703;28;20024;-61
2023/11/23 00:07:17;;;;;;;13.65;7.57;;;9.10;89.80;;;;;;5054559;28;20032;-62
2023/11/23 00:09:43;;;;;;;17.45;8.88;;;9.10;89.90;;;;;;5054866;28;20025;-62
2023/11/23 00:12:09;;;;;;;16.23;8.27;;;9.10;90.00;;;;;;5052262;28;20099;-61
2023/11/23 00:14:36;;;;;;;17.17;8.43;;;9.10;90.00;;;;;;5041562;28;20034;-61
2023/11/23 00:17:02;;;;;;;16.33;8.02;;;9.10;90.00;;;;;;5044946;28;20120;-62
2023/11/23 00:19:28;;;;;;;15.05;8.02;;;9.10;90.00;;;;;;5050250;28;20585;-62
2023/11/23 00:21:53;;;;;;;13.55;6.80;;;9.10;90.00;;;;;;5053421;28;20513;-62
2023/11/23 00:24:19;;;;;;;17.50;7.85;;;9.20;90.00;;;;;;5051506;28;20028;-62
2023/11/23 00:26:45;;;;;;;16.15;8.82;;;9.20;90.10;;;;;;5057135;28;20032;-61
2023/11/23 00:29:10;;;;;;;16.33;8.27;;;9.20;90.10;;;;;;5045551;28;20029;-61
2023/11/23 00:31:36;;;;;;;16.50;8.23;;;9.20;90.10;;;;;;5060853;28;20047;-62
2023/11/23 00:34:05;;;;;;;16.27;9.13;;;9.20;90.10;;;;;;5054365;28;20033;-61
2023/11/23 00:36:32;;;;;;;15.35;8.85;;;9.20;90.20;;;;;;5060663;28;20060;-62
2023/11/23 00:38:58;;;;;;;16.23;8.20;;;9.30;90.20;;;;;;5049018;28;20025;-62
2023/11/23 00:41:23;;;;;;;15.07;9.05;;;9.30;90.30;;;;;;5054887;28;20417;-61
2023/11/23 00:43:50;;;;;;;14.35;8.15;;;9.30;90.40;;;;;;5054690;28;20055;-61
2023/11/23 00:46:16;;;;;;;22.27;8.52;;;9.20;90.40;;;;;;5044343;28;20043;-61
2023/11/23 00:48:42;;;;;;;13.75;6.90;;;9.30;90.40;;;;;;5056102;28;20036;-61
2023/11/23 00:51:08;;;;;;;19.75;8.27;;;9.30;90.30;;;;;;5058443;28;20021;-61
2023/11/23 00:53:34;;;;;;;21.02;9.80;;;9.40;90.40;;;;;;5056507;28;20041;-61
2023/11/23 00:56:01;;;;;;;17.63;9.38;;;9.40;90.40;;;;;;5055424;28;20108;-61
2023/11/23 00:58:27;;;;;;;13.23;8.10;;;9.40;90.40;;;;;;5051855;28;20111;-61
2023/11/23 01:00:52;;;;;;;15.63;8.27;;;9.40;90.40;;;;;;5054025;28;20033;-61
2023/11/23 01:03:18;;;;;;;15.35;8.38;;;9.40;90.50;;;;;;5051880;28;20408;-61
2023/11/23 01:05:44;;;;;;;15.65;8.02;;;9.40;90.50;;;;;;5050810;28;20543;-61
2023/11/23 01:08:10;;;;;;;16.70;9.57;;;9.40;90.80;;;;;;5052035;28;20047;-62
2023/11/23 01:10:36;;;;;;;17.00;8.70;;;9.50;90.50;;;;;;5080456;28;20032;-61
2023/11/23 01:13:02;;;;;;;16.65;9.48;;;9.50;90.60;;;;;;5058524;28;20045;-61
2023/11/23 01:15:28;;;;;;;16.73;8.82;;;9.50;90.60;;;;;;5052054;28;20533;-61
2023/11/23 01:17:54;;;;;;;16.48;9.13;;;9.60;90.70;;;;;;5053897;28;20037;-61
2023/11/23 01:20:20;;;;;;;16.08;8.82;;;9.60;91.00;;;;;;5057730;28;20031;-61
2023/11/23 01:22:46;;;;;;;17.33;8.85;;;9.50;90.70;;;;;;5055211;28;20476;-61
2023/11/23 01:25:13;;;;;;;13.38;7.80;;;9.60;90.90;;;;;;5054137;28;20060;-60
2023/11/23 01:27:39;;;;;;;10.88;6.53;;;9.60;90.90;;;;;;5054274;28;20116;-61
2023/11/23 01:30:05;;;;;;;16.23;8.70;;;9.60;90.90;;;;;;5048183;28;20531;-61
2023/11/23 01:32:32;;;;;;;14.98;8.93;;;9.60;91.00;;;;;;5055701;28;20068;-61
2023/11/23 01:34:58;;;;;;;16.27;8.25;;;9.60;91.00;;;;;;5056651;28;20024;-61
2023/11/23 01:37:23;;;;;;;15.13;8.68;;;9.60;91.30;;;;;;5054261;28;20017;-61
2023/11/23 01:39:49;;;;;;;16.40;9.35;;;9.70;91.00;;;;;;5057973;28;20025;-61
2023/11/23 01:42:15;;;;;;;20.42;9.13;;;9.70;91.00;;;;;;5057457;28;20028;-61
2023/11/23 01:44:41;;;;;;;15.32;8.85;;;9.70;91.10;;;;;;5057937;28;20095;-61
2023/11/23 01:47:09;;;;;;;14.52;9.00;;;9.70;91.10;;;;;;5050572;28;20504;-61
2023/11/23 01:49:38;;;;;;;15.43;9.48;;;9.70;91.20;;;;;;5061966;28;20029;-60
2023/11/23 01:52:03;;;;;;;11.85;6.07;;;9.70;91.20;;;;;;5054320;28;20036;-60
2023/11/23 01:54:29;;;;;;;14.23;8.30;;;9.80;91.10;;;;;;5054050;28;20044;-61
2023/11/23 01:56:56;;;;;;;15.63;9.13;;;9.80;91.10;;;;;;5052884;28;20032;-61
2023/11/23 01:59:22;;;;;;;16.42;9.15;;;9.90;91.10;;;;;;5050699;28;20029;-61
2023/11/23 02:01:49;;;;;;;16.23;8.50;;;9.90;91.10;;;;;;5052410;28;20041;-61
2023/11/23 02:04:16;;;;;;;19.88;8.25;;;9.90;91.10;;;;;;5050174;28;20543;-61
2023/11/23 02:06:42;;;;;;;23.33;10.80;;;9.90;91.10;;;;;;5048349;28;20033;-61
2023/11/23 02:09:08;;;;;;;16.25;9.80;;;10.00;91.20;;;;;;5062821;28;20040;-61
2023/11/23 02:11:35;;;;;;;17.38;10.98;;;10.00;91.30;;;;;;5048209;28;20041;-61
2023/11/23 02:14:03;;;;;;;11.93;7.95;;;10.00;91.20;;;;;;5050830;28;20021;-61
2023/11/23 02:16:29;;;;;;;10.40;7.22;;;10.10;91.20;;;;;;5051278;28;20549;-61
2023/11/23 02:18:55;;;;;;;16.83;8.82;;;10.10;91.10;;;;;;5057210;28;20025;-61
2023/11/23 02:21:21;;;;;;;22.20;10.00;;;10.10;91.10;;;;;;5042983;28;20037;-61
2023/11/23 02:23:46;;;;;;;15.40;7.70;;;10.10;91.10;;;;;;5047170;28;20495;-61
2023/11/23 02:26:12;;;;;;;11.77;6.65;;;10.20;91.20;;;;;;5050809;28;20036;-60
2023/11/23 02:28:38;;;;;;;12.55;7.90;;;10.20;91.10;;;;;;5053657;28;20160;-60
2023/11/23 02:31:03;;;;;;;14.38;7.28;;;10.30;91.10;;;;;;5052412;28;20032;-60
2023/11/23 02:33:31;;;;;;;15.38;8.23;;;10.30;91.10;;;;;;5043591;28;20033;-60
2023/11/23 02:35:57;;;;;;;21.40;9.27;;;10.30;91.20;;;;;;5052558;28;20071;-60
2023/11/23 02:38:22;;;;;;;11.70;7.57;;;10.30;91.20;;;;;;5046447;28;20503;-60
2023/11/23 02:40:48;;;;;;;21.50;9.30;;;10.40;91.20;;;;;;5050525;28;20028;-60
2023/11/23 02:43:14;;;;;;;17.23;8.27;;;10.40;91.30;;;;;;5052089;28;20101;-59
2023/11/23 02:45:41;;;;;;;11.68;8.18;;;10.40;91.20;;;;;;5051265;28;20044;-60
2023/11/23 02:48:07;;;;;;;12.30;7.18;;;10.40;91.20;;;;;;5045854;28;20464;-61
2023/11/23 02:50:33;;;;;;;18.90;7.40;;;10.50;91.10;;;;;;5045975;28;20044;-61
2023/11/23 02:53:01;;;;;;;8.30;6.30;;;10.50;91.00;;;;;;5052568;28;20075;-61
2023/11/23 02:55:27;;;;;;;13.57;6.72;;;10.50;91.10;;;;;;5043230;28;20056;-61
2023/11/23 02:57:53;;;;;;;14.45;7.53;;;10.60;91.00;;;;;;5046458;28;20018;-61
2023/11/23 03:00:18;;;;;;;11.93;7.43;;;10.60;91.10;;;;;;5054543;28;20025;-61
2023/11/23 03:02:44;;;;;;;18.20;7.78;;;10.50;91.10;;;;;;5043625;28;20033;-61
2023/11/23 03:05:10;;;;;;;11.30;6.57;;;10.60;91.20;;;;;;5046828;28;20116;-61
2023/11/23 03:07:36;;;;;;;11.40;6.78;;;10.60;91.10;;;;;;5044768;28;20484;-61
2023/11/23 03:10:02;;;;;;;11.80;6.82;;;10.60;91.10;;;;;;5054592;28;20105;-61
2023/11/23 03:12:28;;;;;;;13.32;7.78;;;10.60;91.10;;;;;;5044265;28;20121;-61
2023/11/23 03:14:55;;;;;;;15.00;7.60;;;10.70;91.20;;;;;;5044029;28;20111;-61
2023/11/23 03:17:21;;;;;;;12.70;7.57;;;10.70;91.10;;;;;;5050253;28;20116;-61
2023/11/23 03:19:47;;;;;;;11.20;6.78;;;10.70;91.20;;;;;;5045649;28;20548;-61
2023/11/23 03:22:13;;;;;;;9.70;6.82;;;10.70;91.30;;;;;;5054479;28;20025;-60
2023/11/23 03:24:39;;;;;;;9.30;5.85;;;10.70;91.30;;;;;;5046488;28;20356;-60
2023/11/23 03:27:05;;;;;;;19.63;7.60;;;10.80;91.30;;;;;;5055205;28;20029;-60
2023/11/23 03:29:30;;;;;;;12.00;7.03;;;10.80;91.20;;;;;;5059345;28;20029;-61
2023/11/23 03:31:56;;;;;;;10.70;7.57;;;10.80;91.20;;;;;;5059891;28;20063;-61
2023/11/23 03:34:22;;;;;;;15.20;6.75;;;10.80;91.20;;;;;;5062724;28;20039;-60
2023/11/23 03:36:48;;;;;;;9.68;6.45;;;10.80;91.20;;;;;;5055409;28;20499;-60
2023/11/23 03:39:13;;;;;;;12.15;6.45;;;10.80;91.20;;;;;;5058422;28;20025;-60
2023/11/23 03:41:39;;;;;;;10.60;6.28;;;10.90;91.30;;;;;;5059568;28;20036;-61
2023/11/23 03:44:05;;;;;;;10.18;6.07;;;10.90;91.30;;;;;;5060706;28;20530;-61
2023/11/23 03:46:31;;;;;;;11.73;7.53;;;10.90;91.30;;;;;;5052245;28;20094;-60
2023/11/23 03:48:56;;;;;;;10.45;6.45;;;10.90;91.30;;;;;;5051401;28;20392;-61
2023/11/23 03:51:24;;;;;;;15.10;7.93;;;10.90;91.30;;;;;;5055450;28;20032;-61
2023/11/23 03:53:50;;;;;;;13.57;6.53;;;10.90;91.30;;;;;;5050696;28;20017;-60
2023/11/23 03:56:15;;;;;;;8.60;6.22;;;10.90;91.30;;;;;;5055123;28;20501;-60
2023/11/23 03:58:42;;;;;;;11.95;5.93;;;11.00;91.30;;;;;;5055142;28;20025;-61
2023/11/23 04:01:09;;;;;;;18.60;7.55;;;11.00;91.30;;;;;;5058151;28;20017;-61
2023/11/23 04:03:35;;;;;;;18.38;6.40;;;11.00;91.30;;;;;;5052013;28;20500;-60
2023/11/23 04:06:03;;;;;;;19.35;8.15;;;11.00;91.30;;;;;;5059066;28;20025;-60
2023/11/23 04:08:29;;;;;;;12.23;6.60;;;11.00;91.30;;;;;;5043706;28;20036;-60
2023/11/23 04:10:55;;;;;;;10.40;6.85;;;11.00;91.30;;;;;;5046341;28;20028;-60
2023/11/23 04:13:21;;;;;;;10.73;6.03;;;11.00;91.50;;;;;;5052958;28;20523;-61
2023/11/23 04:15:47;;;;;;;12.70;7.18;;;11.00;91.30;;;;;;5055055;28;20021;-61
2023/11/23 04:18:13;;;;;;;15.07;6.65;;;11.10;91.30;;;;;;5049247;28;20029;-61
2023/11/23 04:20:38;;;;;;;10.05;5.57;;;11.00;91.20;;;;;;5046228;28;20498;-61
2023/11/23 04:23:04;;;;;;;15.18;7.03;;;11.10;91.20;;;;;;5051099;28;20029;-61
2023/11/23 04:25:30;;;;;;;8.95;5.72;;;11.10;91.10;;;;;;5050526;28;20036;-61
2023/11/23 04:27:57;;;;;;;9.15;5.80;;;11.10;91.10;;;;;;5047943;28;20040;-61
2023/11/23 04:30:23;;;;;;;11.32;5.82;;;11.10;91.10;;;;;;5051888;28;20029;-61
2023/11/23 04:32:49;;;;;;;8.38;4.63;;;11.10;91.10;;;;;;5045371;28;20506;-62
2023/11/23 04:35:15;;;;;;;15.48;5.20;;;11.20;91.00;;;;;;5050420;28;20029;-61
2023/11/23 04:37:40;;;;;;;16.80;5.65;;;11.20;91.00;;;;;;5055140;28;20056;-61
2023/11/23 04:40:07;;;;;;;9.35;6.13;;;11.20;91.00;;;;;;5055678;28;20021;-61
2023/11/23 04:42:36;;;;;;;13.85;5.88;;;11.20;91.00;;;;;;5053296;28;20029;-62
2023/11/23 04:45:03;;;;;;;17.73;6.72;;;11.20;91.00;;;;;;5051884;28;20198;-61
2023/11/23 04:47:29;;;;;;;14.70;6.63;;;11.10;91.20;;;;;;5055503;28;20127;-61
2023/11/23 04:49:54;;;;;;;19.00;6.60;;;11.10;91.20;;;;;;5057398;28;20032;-61
2023/11/23 04:52:20;;;;;;;8.70;5.07;;;11.20;91.20;;;;;;5050895;28;20041;-61
2023/11/23 04:54:46;;;;;;;18.13;6.53;;;11.20;91.20;;;;;;5056982;28;20518;-61
2023/11/23 04:57:12;;;;;;;9.23;5.28;;;11.20;91.20;;;;;;5053354;28;20029;-61
2023/11/23 04:59:38;;;;;;;9.10;5.60;;;11.20;91.20;;;;;;5052489;28;20030;-62
2023/11/23 05:02:04;;;;;;;7.35;4.90;;;11.30;91.10;;;;;;5053243;28;20384;-62
2023/11/23 05:04:31;;;;;;;8.20;4.85;;;11.30;91.10;;;;;;5053275;28;20063;-61
2023/11/23 05:06:57;;;;;;;10.43;6.47;;;11.30;91.10;;;;;;5054792;28;20049;-61
2023/11/23 05:09:23;;;;;;;17.00;4.93;;;11.30;91.10;;;;;;5049895;28;20060;-62
2023/11/23 05:11:49;;;;;;;9.52;5.32;;;11.30;91.20;;;;;;5046053;28;20496;-61
2023/11/23 05:14:15;;;;;;;10.57;5.45;;;11.30;91.20;;;;;;5050424;28;20029;-61
2023/11/23 05:16:40;;;;;;;13.25;4.82;;;11.30;91.10;;;;;;5048306;28;20020;-61
2023/11/23 05:19:07;;;;;;;10.73;4.93;;;11.30;91.10;;;;;;5055340;28;20028;-62
2023/11/23 05:21:32;;;;;;;7.43;4.05;;;11.30;91.20;;;;;;5052081;28;20472;-62
2023/11/23 05:23:58;;;;;;;7.10;4.63;;;11.30;91.20;;;;;;5055316;28;20040;-62
2023/11/23 05:26:24;;;;;;;7.57;4.25;;;11.30;91.20;;;;;;5054503;28;20044;-62
2023/11/23 05:28:50;;;;;;;7.90;4.22;;;11.30;91.10;;;;;;5052464;28;20033;-62
2023/11/23 05:31:15;;;;;;;7.05;4.63;;;11.30;91.10;;;;;;5051895;28;20037;-61
2023/11/23 05:33:41;;;;;;;21.95;5.68;;;11.40;91.10;;;;;;5048168;28;20040;-62
2023/11/23 05:36:10;;;;;;;8.15;4.38;;;11.40;91.10;;;;;;5052391;28;20119;-62
2023/11/23 05:38:36;;;;;;;3.95;3.38;;;11.40;91.10;;;;;;5058257;28;20067;-62
2023/11/23 05:41:01;;;;;;;11.20;4.57;;;11.40;91.40;;;;;;5051402;28;20078;-61
2023/11/23 05:43:27;;;;;;;8.43;4.25;;;11.40;91.10;;;;;;5051996;28;20033;-62
2023/11/23 05:45:53;;;;;;;6.35;3.85;;;11.40;91.10;;;;;;5052429;28;20166;-62
2023/11/23 05:48:18;;;;;;;10.27;4.15;;;11.30;91.10;;;;;;5050825;28;20032;-62
2023/11/23 05:50:44;;;;;;;7.43;4.47;;;11.30;91.10;;;;;;5046490;28;20032;-61
2023/11/23 05:53:10;;;;;;;7.45;3.45;;;11.40;91.10;;;;;;5049510;28;20396;-60
2023/11/23 05:55:36;;;;;;;8.85;3.75;;;11.40;91.00;;;;;;5054370;28;20043;-60
2023/11/23 05:58:01;;;;;;;10.48;4.75;;;11.40;91.00;;;;;;5048299;28;20032;-60
2023/11/23 06:00:27;;;;;;;9.20;5.20;;;11.40;91.00;;;;;;5055337;28;20131;-60
2023/11/23 06:02:53;;;;;;;8.77;4.45;;;11.40;91.20;;;;;;5050498;28;20052;-60
2023/11/23 06:05:18;;;;;;;5.22;3.35;;;11.40;91.00;;;;;;5051897;28;20036;-60
2023/11/23 06:07:44;;;;;;;7.10;3.92;;;11.40;90.90;;;;;;5051528;28;20040;-60
2023/11/23 06:10:11;;;;;;;9.93;4.38;;;11.40;90.90;;;;;;5050724;28;21545;-60
2023/11/23 06:12:38;;;;;;;7.55;4.57;;;11.40;90.90;;;;;;5051403;28;20187;-60
2023/11/23 06:15:05;;;;;;;10.30;4.32;;;11.40;90.90;;;;;;5052646;28;20507;-61
2023/11/23 06:17:31;;;;;;;9.35;4.18;;;11.40;91.00;;;;;;5046215;28;20033;-60
2023/11/23 06:19:57;;;;;;;6.82;3.88;;;11.40;91.00;;;;;;5034104;28;20036;-60
2023/11/23 06:22:22;;;;;;;9.20;4.68;;;11.50;90.90;;;;;;5053025;28;20994;-60
2023/11/23 06:24:48;;;;;;;6.93;4.50;;;11.40;90.90;;;;;;5050035;28;20028;-60
2023/11/23 06:27:13;;;;;;;7.47;4.28;;;11.40;90.90;;;;;;5049732;28;20112;-61
2023/11/23 06:29:39;;;;;;;10.82;4.35;;;11.50;90.90;;;;;;5049278;28;20033;-61
2023/11/23 06:32:05;;;;;;;9.13;4.40;;;11.50;90.90;;;;;;5045252;28;20033;-61
2023/11/23 06:34:31;;;;;;;8.48;4.38;;;11.50;90.90;;;;;;5047451;28;20036;-60
2023/11/23 06:36:56;;;;;;;8.52;3.55;;;11.50;90.80;;;;;;5054932;28;20155;-61
2023/11/23 06:39:24;;;;;;;8.70;4.68;;;11.50;90.90;;;;;;5050205;28;20027;-61
2023/11/23 06:41:54;;;;;;;11.93;4.15;;;11.50;90.80;;;;;;5055701;28;20029;-60
2023/11/23 06:44:20;;;;;;;7.25;4.68;;;11.50;90.80;;;;;;5054067;28;20483;-60
2023/11/23 06:46:46;;;;;;;8.27;4.90;;;11.50;90.80;;;;;;5051596;28;20025;-60
2023/11/23 06:49:12;;;;;;;9.90;5.35;;;11.60;90.80;;;;;;5048562;28;20507;-60
2023/11/23 06:51:38;;;;;;;6.72;4.93;;;11.60;90.80;;;;;;5028042;28;20033;-60
2023/11/23 06:54:04;;;;;;;9.05;4.75;;;11.60;90.80;;;;;;5047810;28;20120;-60
2023/11/23 06:56:30;;;;;;;8.90;4.82;;;11.50;90.90;;;;;;5053597;28;20133;-60
2023/11/23 06:58:55;;;;;;;11.05;4.90;;;11.50;91.00;;;;;;5046722;28;20028;-61
2023/11/23 07:01:21;;;;;;;9.60;3.80;;;11.60;91.00;;;;;;5056538;28;20033;-61
2023/11/23 07:03:47;;;;;;;9.13;5.28;;;11.60;90.90;;;;;;5053306;28;20028;-61
2023/11/23 07:06:13;;;;;;;6.93;3.53;;;11.60;90.90;;;;;;5051044;28;20033;-61
2023/11/23 07:08:40;;;;;;;6.78;4.28;;;11.70;90.90;;;;;;5053331;28;20419;-60
2023/11/23 07:11:06;;;;;;;10.90;5.22;;;11.70;90.80;;;;;;5057223;28;20098;-60
2023/11/23 07:13:33;;;;;;;7.65;4.43;;;11.70;90.80;;;;;;5055555;28;20056;-61
2023/11/23 07:15:59;;;;;;;6.35;4.03;;;11.70;90.80;;;;;;5062951;28;20029;-61
2023/11/23 07:18:26;;;;;;;4.80;4.07;;;11.70;90.80;;;;;;5050565;28;20021;-61
2023/11/23 07:20:55;;;;;;;7.88;3.42;;;11.70;90.80;;;;;;5050356;28;20113;-61
2023/11/23 07:23:21;;;;;;;5.25;3.80;;;11.80;90.80;;;;;;5055230;28;20539;-61
2023/11/23 07:25:47;;;;;;;10.77;4.90;;;11.80;90.70;;;;;;5047860;28;20427;-61
2023/11/23 07:28:13;;;;;;;9.18;4.10;;;11.80;90.70;;;;;;5052284;28;20029;-61
2023/11/23 07:30:40;;;;;;;7.03;4.30;;;11.80;90.70;;;;;;5050390;28;20029;-61
2023/11/23 07:33:07;;;;;;;9.05;4.15;;;11.70;90.70;;;;;;5050159;28;20029;-61
2023/11/23 07:35:34;;;;;;;9.48;5.30;;;11.70;90.60;;;;;;5045540;28;20430;-61
2023/11/23 07:38:01;;;;;;;7.35;4.45;;;11.70;90.70;;;;;;5051286;28;20021;-60
2023/11/23 07:40:26;;;;;;;7.18;3.78;;;11.70;90.70;;;;;;5049481;28;20119;-60
2023/11/23 07:42:52;;;;;;;8.40;4.68;;;11.70;90.70;;;;;;5053103;28;20120;-61
2023/11/23 07:45:18;;;;;;;6.53;3.88;;;11.70;90.70;;;;;;5049112;28;20029;-60
2023/11/23 07:47:44;;;;;;;9.73;4.82;;;11.70;90.70;;;;;;5051419;28;20094;-61
2023/11/23 07:50:16;;;;;;;7.63;4.35;;;11.70;90.70;;;;;;5048323;28;20123;-61
2023/11/23 07:52:46;;;;;;;10.13;3.85;;;11.70;90.70;;;;;;5050192;28;20040;-61
2023/11/23 07:55:15;;;;;;;8.18;4.68;;;11.80;90.70;;;;;;5049778;28;20086;-60
2023/11/23 07:57:49;;;;;;;7.90;4.10;;;11.80;90.70;;;;;;5054885;28;20017;-60
2023/11/23 08:00:18;;;;;;;5.43;3.67;;;11.80;90.60;;;;;;5059937;28;20086;-61
2023/11/23 08:02:43;;;;;;;7.35;3.50;;;11.80;90.60;;;;;;5052976;28;20029;-61
2023/11/23 08:05:09;;;;;;;5.32;3.13;;;11.90;90.60;;;;;;5057196;28;20291;-61
2023/11/23 08:07:35;;;;;;;5.82;3.85;;;11.90;90.50;;;;;;5052503;28;20130;-61
2023/11/23 08:10:02;;;;;;;7.90;4.28;;;11.90;90.50;;;;;;5037108;28;20388;-60
2023/11/23 08:12:28;;;;;;;4.57;3.22;;;11.90;90.40;;;;;;5055441;28;20511;-63
2023/11/23 08:14:54;;;;;;;6.70;3.45;;;11.90;90.40;;;;;;5053109;28;20058;-61
2023/11/23 08:17:19;;;;;;;8.02;4.82;;;11.90;90.40;;;;;;5056143;28;20048;-59
2023/11/23 08:19:46;;;;;;;7.47;3.92;;;11.90;90.40;;;;;;5052089;28;20055;-61
2023/11/23 08:22:12;;;;;;;7.30;3.90;;;11.90;90.40;;;;;;5060134;28;20452;-60
2023/11/23 08:24:38;;;;;;;7.47;5.05;;;11.90;90.50;;;;;;5048110;28;20373;-61
2023/11/23 08:27:05;;;;;;;6.72;4.07;;;12.00;90.40;;;;;;5050849;28;20029;-61
2023/11/23 08:29:31;;;;;;;6.68;3.33;;;12.00;90.40;;;;;;5048185;28;20052;-61
2023/11/23 08:31:58;;;;;;;6.15;3.55;;;12.00;90.40;;;;;;5048199;28;20025;-61
2023/11/23 08:34:24;;;;;;;5.13;3.00;;;12.00;90.30;;;;;;5050363;28;20079;-61
2023/11/23 08:36:50;;;;;;;5.72;2.95;;;12.00;90.30;;;;;;5049439;28;20031;-62
2023/11/23 08:39:19;;;;;;;7.88;3.20;;;12.10;90.30;;;;;;5054774;28;20051;-60
2023/11/23 08:41:45;;;;;;;5.47;3.45;;;12.10;90.30;;;;;;5051207;28;20031;-61
2023/11/23 08:44:11;;;;;;;6.72;3.97;;;12.10;90.20;;;;;;5049744;28;20036;-61
2023/11/23 08:46:41;;;;;;;9.80;3.58;;;12.10;90.20;;;;;;5050453;28;20036;-60
2023/11/23 08:49:08;;;;;;;5.72;3.38;;;12.10;90.20;;;;;;5059719;28;20120;-61
2023/11/23 08:51:34;;;;;;;8.88;4.10;;;12.10;90.30;;;;;;5052697;28;20446;-63
2023/11/23 08:53:59;;;;;;;7.03;4.03;;;12.10;90.30;;;;;;5075837;28;20033;-62
2023/11/23 08:56:25;;;;;;;9.70;4.93;;;12.10;90.30;;;;;;5044529;28;20027;-62
2023/11/23 08:58:51;;;;;;;7.72;4.43;;;12.10;90.30;;;;;;5054001;28;20033;-63
2023/11/23 09:01:17;;;;;;;7.43;3.92;;;12.10;90.40;;;;;;5050255;28;20089;-63
2023/11/23 09:03:42;;;;;;;11.85;4.95;;;12.10;90.40;;;;;;5049136;28;20030;-63
2023/11/23 09:06:08;;;;;;;9.43;4.05;;;12.10;90.40;;;;;;5052943;28;20034;-62
2023/11/23 09:08:35;;;;;;;9.38;4.60;;;12.10;90.30;;;;;;5048914;28;20404;-63
2023/11/23 09:11:01;;;;;;;6.88;4.15;;;12.10;90.40;;;;;;5055695;28;20044;-63
2023/11/23 09:13:27;;;;;;;7.93;4.25;;;12.20;90.30;;;;;;5041834;28;20148;-61
2023/11/23 09:15:56;;;;;;;6.72;4.47;;;12.20;90.30;;;;;;5043538;28;20104;-61
2023/11/23 09:18:22;;;;;;;8.40;3.95;;;12.20;90.30;;;;;;5044217;28;20655;-61
2023/11/23 09:20:48;;;;;;;7.65;3.63;;;12.30;90.30;;;;;;5047285;28;20476;-61
2023/11/23 09:23:17;;;;;;;5.93;3.60;;;12.30;90.20;;;;;;5051159;28;20031;-60
2023/11/23 09:25:43;;;;;;;5.28;3.72;;;12.40;90.50;;;;;;5050457;28;20479;-60
2023/11/23 09:28:09;;;;;;;9.45;4.28;;;12.40;90.20;;;;;;5043413;28;20059;-61
2023/11/23 09:30:35;;;;;;;4.63;3.25;;;12.40;90.10;;;;;;5045972;28;20033;-61
2023/11/23 09:33:00;;;;;;;7.63;3.35;;;12.50;90.10;;;;;;5043020;28;20068;-61
2023/11/23 09:35:26;;;;;;;4.00;3.00;;;12.50;90.00;;;;;;5039958;28;20587;-61
2023/11/23 09:37:53;;;;;;;16.73;4.72;;;12.60;90.00;;;;;;5034254;28;20047;-61
2023/11/23 09:40:19;;;;;;;7.95;3.42;;;12.60;90.00;;;;;;5028517;28;20492;-61
2023/11/23 09:42:47;;;;;;;5.88;2.92;;;12.60;90.00;;;;;;5043088;28;20104;-61
2023/11/23 09:45:16;;;;;;;4.22;3.20;;;12.60;89.90;;;;;;5048842;28;20032;-61
2023/11/23 09:47:43;;;;;;;6.10;3.25;;;12.70;89.90;;;;;;5038483;28;20064;-61
2023/11/23 09:50:09;;;;;;;4.40;3.42;;;12.60;89.80;;;;;;5042080;28;20032;-61
2023/11/23 09:52:36;;;;;;;5.88;3.05;;;12.70;89.80;;;;;;5041748;28;20495;-61
2023/11/23 09:55:04;;;;;;;8.10;3.00;;;12.60;89.80;;;;;;5036469;28;20120;-61
2023/11/23 09:57:30;;;;;;;3.97;2.42;;;12.70;89.80;;;;;;5043943;28;20025;-62
2023/11/23 09:59:56;;;;;;;5.10;2.53;;;12.70;89.80;;;;;;5044349;28;20082;-61
2023/11/23 10:02:23;;;;;;;5.78;2.70;;;12.70;89.80;;;;;;5046683;28;20043;-61
2023/11/23 10:04:50;;;;;;;9.20;2.58;;;12.80;89.70;;;;;;5045334;28;20457;-61
2023/11/23 10:07:16;;;;;;;4.30;2.83;;;12.80;89.60;;;;;;5037084;28;20575;-60
2023/11/23 10:09:46;;;;;;;7.72;3.22;;;12.80;89.60;;;;;;5045349;28;20037;-60
2023/11/23 10:12:13;;;;;;;6.18;3.20;;;12.80;89.40;;;;;;5043912;28;20107;-61
2023/11/23 10:14:40;;;;;;;6.40;2.85;;;12.90;89.40;;;;;;5041057;28;20430;-61
2023/11/23 10:17:06;;;;;;;4.55;3.08;;;12.90;89.40;;;;;;5036709;28;20107;-60
2023/11/23 10:19:35;;;;;;;5.80;2.97;;;13.00;89.20;;;;;;5041507;28;20032;-61
2023/11/23 10:22:03;;;;;;;5.25;3.10;;;13.10;88.90;;;;;;5038362;28;20075;-61
2023/11/23 10:24:29;;;;;;;7.00;3.55;;;13.20;88.50;;;;;;5050108;28;20074;-61
2023/11/23 10:26:56;;;;;;;6.75;3.22;;;13.30;88.40;;;;;;5037611;28;20036;-61
2023/11/23 10:29:32;;;;;;;7.43;3.33;;;13.20;88.10;;;;;;5038735;28;20033;-61
2023/11/23 10:32:01;;;;;;;6.22;2.83;;;13.10;88.20;;;;;;5048291;28;20714;-60
2023/11/23 10:34:30;;;;;;;3.13;2.38;;;13.20;88.40;;;;;;5034784;28;20029;-61
2023/11/23 10:36:56;;;;;;;3.33;2.88;;;13.20;88.40;;;;;;5050668;28;20024;-61
2023/11/23 10:39:23;;;;;;;4.28;2.45;;;13.20;88.20;;;;;;5044695;28;20060;-60
2023/11/23 10:41:49;;;;;;;3.70;2.15;;;13.20;88.20;;;;;;5043569;28;20074;-60
2023/11/23 10:44:15;;;;;;;3.22;2.20;;;13.30;88.20;;;;;;5022362;28;20048;-61
2023/11/23 10:46:43;;;;;;;10.07;3.00;;;13.30;88.10;;;;;;5036498;28;20036;-62
2023/11/23 10:49:08;;;;;;;5.85;3.33;;;13.30;87.90;;;;;;5044605;28;20479;-61
2023/11/23 10:51:35;;;;;;;3.67;2.33;;;13.40;88.00;;;;;;5040008;28;20033;-61
2023/11/23 10:54:01;;;;;;;3.40;2.10;;;13.40;87.80;;;;;;5045156;28;20124;-61
2023/11/23 10:56:32;;;;;;;5.03;2.50;;;13.40;87.60;;;;;;5051116;28;20060;-61
2023/11/23 10:59:08;;;;;;;3.97;2.05;;;13.40;87.50;;;;;;5034152;28;21078;-61
2023/11/23 11:01:36;;;;;;;5.35;2.72;;;13.40;87.70;;;;;;5045855;28;20246;-61
2023/11/23 11:04:02;;;;;;;3.22;1.88;;;13.40;87.80;;;;;;5029595;28;20021;-61
2023/11/23 11:06:41;;;;;;;5.55;2.47;;;13.30;87.80;;;;;;5042952;28;20040;-61
2023/11/23 11:09:14;;;;;;;2.58;2.00;;;13.40;87.80;;;;;;5037187;28;20021;-61
2023/11/23 11:11:52;;;;;;;4.65;2.60;;;13.30;87.80;;;;;;5019145;28;20048;-61
2023/11/23 11:14:29;;;;;;;4.90;2.45;;;13.30;87.80;;;;;;5046820;28;20547;-61
2023/11/23 11:17:04;;;;;;;2.83;1.80;;;13.30;87.80;;;;;;5037236;28;20051;-61
2023/11/23 11:19:48;;;;;;;6.57;2.40;;;13.40;87.90;;;;;;5042947;28;20075;-61
2023/11/23 11:22:14;;;;;;;2.30;1.70;;;13.40;87.80;;;;;;5038814;28;20043;-61
2023/11/23 11:24:41;;;;;;;4.20;1.90;;;13.40;87.90;;;;;;5048130;28;20354;-61
2023/11/23 11:27:12;;;;;;;7.13;2.28;;;13.40;87.60;;;;;;5038804;28;20116;-61
2023/11/23 11:29:47;;;;;;;1.88;1.65;;;13.50;87.60;;;;;;5045495;28;20033;-61
2023/11/23 11:32:15;;;;;;;3.05;2.03;;;13.50;87.50;;;;;;5046364;28;20079;-61
2023/11/23 11:34:40;;;;;;;2.38;1.83;;;13.50;87.50;;;;;;5050577;28;20503;-61
2023/11/23 11:37:07;;;;;;;6.03;1.92;;;13.60;87.40;;;;;;5040914;28;20033;-61
2023/11/23 11:39:32;;;;;;;3.10;1.60;;;13.60;87.40;;;;;;5044226;28;20041;-61
2023/11/23 11:41:59;;;;;;;3.92;1.45;;;13.50;87.30;;;;;;5035692;28;20025;-62
2023/11/23 11:44:29;;;;;;;4.00;1.50;;;13.60;87.50;;;;;;5043839;28;20021;-61
2023/11/23 11:46:56;;;;;;;3.85;1.92;;;13.60;87.30;;;;;;5038138;28;20120;-61
2023/11/23 11:49:24;;;;;;;5.47;1.48;;;13.60;87.30;;;;;;5041795;28;20056;-61
2023/11/23 11:51:50;;;;;;;4.82;1.52;;;13.60;87.30;;;;;;5034868;28;20534;-61
2023/11/23 11:54:18;;;;;;;2.70;1.73;;;13.60;87.30;;;;;;5049560;28;20065;-61
2023/11/23 11:56:47;;;;;;;3.63;1.98;;;13.60;87.30;;;;;;5049281;28;20071;-62
2023/11/23 11:59:12;;;;;;;7.63;2.58;;;13.60;87.30;;;;;;5048618;28;20035;-61
2023/11/23 12:01:38;;;;;;;2.25;1.60;;;13.60;87.30;;;;;;5051220;28;20028;-61
2023/11/23 12:04:04;;;;;;;5.47;2.22;;;13.70;87.30;;;;;;5050060;28;20550;-62
2023/11/23 12:06:30;;;;;;;11.95;2.55;;;13.60;87.20;;;;;;5050119;28;20025;-61
2023/11/23 12:08:57;;;;;;;21.67;2.05;;;13.60;87.20;;;;;;5051081;28;20095;-61
2023/11/23 12:11:28;;;;;;;2.35;1.90;;;13.60;87.30;;;;;;5028526;28;20384;-62
2023/11/23 12:13:54;;;;;;;5.10;2.93;;;13.70;87.80;;;;;;5047645;28;20017;-62
2023/11/23 12:16:21;;;;;;;3.58;1.65;;;13.60;87.20;;;;;;5046520;28;20024;-62
2023/11/23 12:18:48;;;;;;;4.13;1.45;;;13.60;87.30;;;;;;5048863;28;20033;-62
2023/11/23 12:21:15;;;;;;;1.73;1.10;;;13.60;87.30;;;;;;5049521;28;20030;-62
2023/11/23 12:23:45;;;;;;;3.47;1.67;;;13.70;87.30;;;;;;5046946;28;20068;-61
2023/11/23 12:26:12;;;;;;;3.35;1.55;;;13.70;87.30;;;;;;5054202;28;20403;-60
2023/11/23 12:28:38;;;;;;;5.15;1.80;;;13.80;87.20;;;;;;5055637;28;20020;-60
2023/11/23 12:31:04;;;;;;;5.05;1.73;;;13.80;87.10;;;;;;5051011;28;20332;-60
2023/11/23 12:33:30;;;;;;;1.00;0.88;;;13.80;87.10;;;;;;5050216;28;20107;-60
2023/11/23 12:35:57;;;;;;;2.80;1.40;;;13.80;87.10;;;;;;5050738;28;20071;-60
2023/11/23 12:38:23;;;;;;;2.85;1.48;;;13.80;86.90;;;;;;5054390;28;20037;-60
2023/11/23 12:40:49;;;;;;;3.08;1.30;;;13.90;86.90;;;;;;5046416;28;20047;-61